sensor_id;sensor_type;location;lat;lon;timestamp;temperature;humidity
52321;DHT22;38261;54.090;13.382;2024-01-16T00:00:07;-0.70;99.90
52321;DHT22;38261;54.090;13.382;2024-01-16T00:01:30;-0.70;99.90
52321;DHT22;38261;54.090;13.382;2024-01-16T00:02:52;-0.70;99.90
52321;DHT22;38261;54.090;13.382;2024-01-16T00:04:14;-0.80;99.90
52321;DHT22;38261;54.090;13.382;2024-01-16T00:05:37;-0.80;99.90
52321;DHT22;38261;54.090;13.382;2024-01-16T00:06:59;-0.80;99.90
52321;DHT22;38261;54.090;13.382;2024-01-16T00:08:22;-0.80;99.90
52321;DHT22;38261;54.090;13.382;2024-01-16T00:09:44;-0.80;99.90
52321;DHT22;38261;54.090;13.382;2024-01-16T00:11:07;-0.80;99.90
52321;DHT22;38261;54.090;13.382;2024-01-16T00:12:29;-0.80;99.90
52321;DHT22;38261;54.090;13.382;2024-01-16T00:13:52;-0.80;99.90
52321;DHT22;38261;54.090;13.382;2024-01-16T00:15:15;-0.80;99.90
52321;DHT22;38261;54.090;13.382;2024-01-16T00:16:47;-0.80;99.90
52321;DHT22;38261;54.090;13.382;2024-01-16T00:18:10;-0.80;99.90
52321;DHT22;38261;54.090;13.382;2024-01-16T00:19:32;-0.90;99.90
52321;DHT22;38261;54.090;13.382;2024-01-16T00:20:54;-0.90;99.90
52321;DHT22;38261;54.090;13.382;2024-01-16T00:22:16;-0.90;99.90
52321;DHT22;38261;54.090;13.382;2024-01-16T00:23:39;-0.90;99.90
52321;DHT22;38261;54.090;13.382;2024-01-16T00:25:01;-1.00;99.90
52321;DHT22;38261;54.090;13.382;2024-01-16T00:26:23;-1.00;99.90
52321;DHT22;38261;54.090;13.382;2024-01-16T00:27:46;-1.00;99.90
52321;DHT22;38261;54.090;13.382;2024-01-16T00:29:08;-1.00;99.90
52321;DHT22;38261;54.090;13.382;2024-01-16T00:30:34;-1.00;99.90
52321;DHT22;38261;54.090;13.382;2024-01-16T00:31:57;-1.10;99.90
52321;DHT22;38261;54.090;13.382;2024-01-16T00:33:19;-1.10;99.90
52321;DHT22;38261;54.090;13.382;2024-01-16T00:34:44;-1.10;99.90
52321;DHT22;38261;54.090;13.382;2024-01-16T00:36:06;-1.10;99.90
52321;DHT22;38261;54.090;13.382;2024-01-16T00:37:28;-1.10;99.90
52321;DHT22;38261;54.090;13.382;2024-01-16T00:38:51;-1.10;99.90
52321;DHT22;38261;54.090;13.382;2024-01-16T00:40:13;-1.10;99.90
52321;DHT22;38261;54.090;13.382;2024-01-16T00:41:35;-1.00;99.90
52321;DHT22;38261;54.090;13.382;2024-01-16T00:42:57;-1.10;99.90
52321;DHT22;38261;54.090;13.382;2024-01-16T00:44:19;-1.10;99.90
52321;DHT22;38261;54.090;13.382;2024-01-16T00:45:41;-1.10;99.90
52321;DHT22;38261;54.090;13.382;2024-01-16T00:47:04;-1.10;99.90
52321;DHT22;38261;54.090;13.382;2024-01-16T00:48:27;-1.10;99.90
52321;DHT22;38261;54.090;13.382;2024-01-16T00:49:50;-1.10;99.90
52321;DHT22;38261;54.090;13.382;2024-01-16T00:51:12;-1.00;99.90
52321;DHT22;38261;54.090;13.382;2024-01-16T00:52:35;-1.00;99.90
52321;DHT22;38261;54.090;13.382;2024-01-16T00:53:57;-1.00;99.90
52321;DHT22;38261;54.090;13.382;2024-01-16T00:55:19;-1.00;99.90
52321;DHT22;38261;54.090;13.382;2024-01-16T00:56:42;-1.00;99.90
52321;DHT22;38261;54.090;13.382;2024-01-16T00:58:04;-1.00;99.90
52321;DHT22;38261;54.090;13.382;2024-01-16T00:59:27;-1.00;99.90
52321;DHT22;38261;54.090;13.382;2024-01-16T01:00:49;-1.00;99.90
52321;DHT22;38261;54.090;13.382;2024-01-16T01:02:12;-1.00;99.90
52321;DHT22;38261;54.090;13.382;2024-01-16T01:03:34;-1.10;99.90
52321;DHT22;38261;54.090;13.382;2024-01-16T01:04:56;-1.10;99.90
52321;DHT22;38261;54.090;13.382;2024-01-16T01:06:19;-1.10;99.90
52321;DHT22;38261;54.090;13.382;2024-01-16T01:07:41;-1.10;99.90
52321;DHT22;38261;54.090;13.382;2024-01-16T01:09:03;-1.20;99.90
52321;DHT22;38261;54.090;13.382;2024-01-16T01:10:25;-1.10;99.90
52321;DHT22;38261;54.090;13.382;2024-01-16T01:11:47;-1.20;99.90
52321;DHT22;38261;54.090;13.382;2024-01-16T01:13:10;-1.20;99.90
52321;DHT22;38261;54.090;13.382;2024-01-16T01:14:32;-1.20;99.90
52321;DHT22;38261;54.090;13.382;2024-01-16T01:15:54;-1.30;99.90
52321;DHT22;38261;54.090;13.382;2024-01-16T01:17:16;-1.30;99.90
52321;DHT22;38261;54.090;13.382;2024-01-16T01:18:39;-1.30;99.90
52321;DHT22;38261;54.090;13.382;2024-01-16T01:20:01;-1.30;99.90
52321;DHT22;38261;54.090;13.382;2024-01-16T01:21:24;-1.40;99.90
52321;DHT22;38261;54.090;13.382;2024-01-16T01:22:46;-1.40;99.90
52321;DHT22;38261;54.090;13.382;2024-01-16T01:24:08;-1.40;99.90
52321;DHT22;38261;54.090;13.382;2024-01-16T01:25:31;-1.40;99.90
52321;DHT22;38261;54.090;13.382;2024-01-16T01:26:53;-1.40;99.90
52321;DHT22;38261;54.090;13.382;2024-01-16T01:28:15;-1.40;99.90
52321;DHT22;38261;54.090;13.382;2024-01-16T01:29:37;-1.50;99.90
52321;DHT22;38261;54.090;13.382;2024-01-16T01:30:59;-1.50;99.90
52321;DHT22;38261;54.090;13.382;2024-01-16T01:32:21;-1.60;99.90
52321;DHT22;38261;54.090;13.382;2024-01-16T01:33:44;-1.70;99.90
52321;DHT22;38261;54.090;13.382;2024-01-16T01:35:07;-1.70;99.90
52321;DHT22;38261;54.090;13.382;2024-01-16T01:36:29;-1.70;99.90
52321;DHT22;38261;54.090;13.382;2024-01-16T01:37:51;-1.80;99.90
52321;DHT22;38261;54.090;13.382;2024-01-16T01:39:13;-1.90;99.90
52321;DHT22;38261;54.090;13.382;2024-01-16T01:40:35;-1.90;99.90
52321;DHT22;38261;54.090;13.382;2024-01-16T01:41:57;-1.90;99.90
52321;DHT22;38261;54.090;13.382;2024-01-16T01:43:21;-2.00;99.90
52321;DHT22;38261;54.090;13.382;2024-01-16T01:44:43;-2.00;99.90
52321;DHT22;38261;54.090;13.382;2024-01-16T01:47:31;-2.10;99.90
52321;DHT22;38261;54.090;13.382;2024-01-16T01:48:53;-2.20;99.90
52321;DHT22;38261;54.090;13.382;2024-01-16T01:50:16;-2.20;99.90
52321;DHT22;38261;54.090;13.382;2024-01-16T01:51:38;-2.30;99.90
52321;DHT22;38261;54.090;13.382;2024-01-16T01:53:00;-2.30;99.90
52321;DHT22;38261;54.090;13.382;2024-01-16T01:54:23;-2.30;99.90
52321;DHT22;38261;54.090;13.382;2024-01-16T01:55:46;-2.40;99.90
52321;DHT22;38261;54.090;13.382;2024-01-16T01:57:08;-2.40;99.90
52321;DHT22;38261;54.090;13.382;2024-01-16T01:58:33;-2.40;99.90
52321;DHT22;38261;54.090;13.382;2024-01-16T01:59:56;-2.40;99.90
52321;DHT22;38261;54.090;13.382;2024-01-16T02:01:19;-2.50;99.90
52321;DHT22;38261;54.090;13.382;2024-01-16T02:02:42;-2.50;99.90
52321;DHT22;38261;54.090;13.382;2024-01-16T02:04:05;-2.50;99.90
52321;DHT22;38261;54.090;13.382;2024-01-16T02:05:29;-2.50;99.90
52321;DHT22;38261;54.090;13.382;2024-01-16T02:06:52;-2.60;99.90
52321;DHT22;38261;54.090;13.382;2024-01-16T02:08:15;-2.60;99.90
52321;DHT22;38261;54.090;13.382;2024-01-16T02:09:37;-2.60;99.90
52321;DHT22;38261;54.090;13.382;2024-01-16T02:11:00;-2.60;99.90
52321;DHT22;38261;54.090;13.382;2024-01-16T02:12:22;-2.60;99.90
52321;DHT22;38261;54.090;13.382;2024-01-16T02:13:46;-2.70;99.90
52321;DHT22;38261;54.090;13.382;2024-01-16T02:15:09;-2.70;99.90
52321;DHT22;38261;54.090;13.382;2024-01-16T02:16:38;-2.70;99.90
52321;DHT22;38261;54.090;13.382;2024-01-16T02:18:00;-2.70;99.90
52321;DHT22;38261;54.090;13.382;2024-01-16T02:19:22;-2.70;99.90
52321;DHT22;38261;54.090;13.382;2024-01-16T02:20:47;-2.70;99.90
52321;DHT22;38261;54.090;13.382;2024-01-16T02:22:16;-2.70;99.90
52321;DHT22;38261;54.090;13.382;2024-01-16T02:23:42;-2.70;99.90
52321;DHT22;38261;54.090;13.382;2024-01-16T02:25:05;-2.70;99.90
52321;DHT22;38261;54.090;13.382;2024-01-16T02:26:27;-2.70;99.90
52321;DHT22;38261;54.090;13.382;2024-01-16T02:27:49;-2.70;99.90
52321;DHT22;38261;54.090;13.382;2024-01-16T02:29:12;-2.70;99.90
52321;DHT22;38261;54.090;13.382;2024-01-16T02:30:34;-2.70;99.90
52321;DHT22;38261;54.090;13.382;2024-01-16T02:31:56;-2.60;99.90
52321;DHT22;38261;54.090;13.382;2024-01-16T02:33:19;-2.60;99.90
52321;DHT22;38261;54.090;13.382;2024-01-16T02:34:41;-2.60;99.90
52321;DHT22;38261;54.090;13.382;2024-01-16T02:36:04;-2.60;99.90
52321;DHT22;38261;54.090;13.382;2024-01-16T02:37:26;-2.50;99.90
52321;DHT22;38261;54.090;13.382;2024-01-16T02:38:48;-2.50;99.90
52321;DHT22;38261;54.090;13.382;2024-01-16T02:40:10;-2.40;99.90
52321;DHT22;38261;54.090;13.382;2024-01-16T02:41:33;-2.40;99.90
52321;DHT22;38261;54.090;13.382;2024-01-16T02:42:55;-2.40;99.90
52321;DHT22;38261;54.090;13.382;2024-01-16T02:44:17;-2.30;99.90
52321;DHT22;38261;54.090;13.382;2024-01-16T02:45:39;-2.30;99.90
52321;DHT22;38261;54.090;13.382;2024-01-16T02:47:01;-2.30;99.90
52321;DHT22;38261;54.090;13.382;2024-01-16T02:48:24;-2.20;99.90
52321;DHT22;38261;54.090;13.382;2024-01-16T02:49:46;-2.20;99.90
52321;DHT22;38261;54.090;13.382;2024-01-16T02:51:09;-2.20;99.90
52321;DHT22;38261;54.090;13.382;2024-01-16T02:52:31;-2.20;99.90
52321;DHT22;38261;54.090;13.382;2024-01-16T02:53:53;-2.10;99.90
52321;DHT22;38261;54.090;13.382;2024-01-16T02:55:16;-2.10;99.90
52321;DHT22;38261;54.090;13.382;2024-01-16T02:56:38;-2.10;99.90
52321;DHT22;38261;54.090;13.382;2024-01-16T02:58:00;-2.00;99.90
52321;DHT22;38261;54.090;13.382;2024-01-16T02:59:24;-2.00;99.90
52321;DHT22;38261;54.090;13.382;2024-01-16T03:00:47;-2.00;99.90
52321;DHT22;38261;54.090;13.382;2024-01-16T03:02:09;-2.00;99.90
52321;DHT22;38261;54.090;13.382;2024-01-16T03:03:32;-2.00;99.90
52321;DHT22;38261;54.090;13.382;2024-01-16T03:04:54;-1.90;99.90
52321;DHT22;38261;54.090;13.382;2024-01-16T03:06:25;-1.90;99.90
52321;DHT22;38261;54.090;13.382;2024-01-16T03:07:48;-1.90;99.90
52321;DHT22;38261;54.090;13.382;2024-01-16T03:09:10;-1.90;99.90
52321;DHT22;38261;54.090;13.382;2024-01-16T03:10:34;-1.90;99.90
52321;DHT22;38261;54.090;13.382;2024-01-16T03:11:56;-1.80;99.90
52321;DHT22;38261;54.090;13.382;2024-01-16T03:13:18;-1.80;99.90
52321;DHT22;38261;54.090;13.382;2024-01-16T03:14:40;-1.80;99.90
52321;DHT22;38261;54.090;13.382;2024-01-16T03:16:06;-1.80;99.90
52321;DHT22;38261;54.090;13.382;2024-01-16T03:17:29;-1.80;99.90
52321;DHT22;38261;54.090;13.382;2024-01-16T03:18:51;-1.80;99.90
52321;DHT22;38261;54.090;13.382;2024-01-16T03:20:13;-1.80;99.90
52321;DHT22;38261;54.090;13.382;2024-01-16T03:21:36;-1.80;99.90
52321;DHT22;38261;54.090;13.382;2024-01-16T03:22:58;-1.80;99.90
52321;DHT22;38261;54.090;13.382;2024-01-16T03:24:20;-1.80;99.90
52321;DHT22;38261;54.090;13.382;2024-01-16T03:25:42;-1.80;99.90
52321;DHT22;38261;54.090;13.382;2024-01-16T03:27:04;-1.80;99.90
52321;DHT22;38261;54.090;13.382;2024-01-16T03:28:26;-1.80;99.90
52321;DHT22;38261;54.090;13.382;2024-01-16T03:29:48;-1.80;99.90
52321;DHT22;38261;54.090;13.382;2024-01-16T03:31:12;-1.80;99.90
52321;DHT22;38261;54.090;13.382;2024-01-16T03:32:37;-1.80;99.90
52321;DHT22;38261;54.090;13.382;2024-01-16T03:33:59;-1.80;99.90
52321;DHT22;38261;54.090;13.382;2024-01-16T03:35:21;-1.80;99.90
52321;DHT22;38261;54.090;13.382;2024-01-16T03:36:43;-1.80;99.90
52321;DHT22;38261;54.090;13.382;2024-01-16T03:38:05;-1.80;99.90
52321;DHT22;38261;54.090;13.382;2024-01-16T03:39:27;-1.80;99.90
52321;DHT22;38261;54.090;13.382;2024-01-16T03:40:50;-1.80;99.90
52321;DHT22;38261;54.090;13.382;2024-01-16T03:42:13;-1.80;99.90
52321;DHT22;38261;54.090;13.382;2024-01-16T03:43:35;-1.80;99.90
52321;DHT22;38261;54.090;13.382;2024-01-16T03:44:57;-1.80;99.90
52321;DHT22;38261;54.090;13.382;2024-01-16T03:46:19;-1.80;99.90
52321;DHT22;38261;54.090;13.382;2024-01-16T03:47:42;-1.80;99.90
52321;DHT22;38261;54.090;13.382;2024-01-16T03:49:04;-1.90;99.90
52321;DHT22;38261;54.090;13.382;2024-01-16T03:50:26;-1.90;99.90
52321;DHT22;38261;54.090;13.382;2024-01-16T03:51:50;-1.90;99.90
52321;DHT22;38261;54.090;13.382;2024-01-16T03:53:12;-1.90;99.90
52321;DHT22;38261;54.090;13.382;2024-01-16T03:54:35;-1.90;99.90
52321;DHT22;38261;54.090;13.382;2024-01-16T03:55:57;-1.90;99.90
52321;DHT22;38261;54.090;13.382;2024-01-16T03:57:19;-1.80;99.90
52321;DHT22;38261;54.090;13.382;2024-01-16T03:58:41;-1.80;99.90
52321;DHT22;38261;54.090;13.382;2024-01-16T04:00:04;-1.80;99.90
52321;DHT22;38261;54.090;13.382;2024-01-16T04:01:31;-1.70;99.90
52321;DHT22;38261;54.090;13.382;2024-01-16T04:02:54;-1.70;99.90
52321;DHT22;38261;54.090;13.382;2024-01-16T04:04:16;-1.70;99.90
52321;DHT22;38261;54.090;13.382;2024-01-16T04:05:38;-1.70;99.90
52321;DHT22;38261;54.090;13.382;2024-01-16T04:07:00;-1.70;99.90
52321;DHT22;38261;54.090;13.382;2024-01-16T04:08:23;-1.70;99.90
52321;DHT22;38261;54.090;13.382;2024-01-16T04:09:45;-1.70;99.90
52321;DHT22;38261;54.090;13.382;2024-01-16T04:11:12;-1.70;99.90
52321;DHT22;38261;54.090;13.382;2024-01-16T04:12:34;-1.60;99.90
52321;DHT22;38261;54.090;13.382;2024-01-16T04:13:56;-1.70;99.90
52321;DHT22;38261;54.090;13.382;2024-01-16T04:15:18;-1.70;99.90
52321;DHT22;38261;54.090;13.382;2024-01-16T04:16:44;-1.70;99.90
52321;DHT22;38261;54.090;13.382;2024-01-16T04:18:06;-1.70;99.90
52321;DHT22;38261;54.090;13.382;2024-01-16T04:19:29;-1.70;99.90
52321;DHT22;38261;54.090;13.382;2024-01-16T04:20:55;-1.70;99.90
52321;DHT22;38261;54.090;13.382;2024-01-16T04:22:17;-1.70;99.90
52321;DHT22;38261;54.090;13.382;2024-01-16T04:23:41;-1.70;99.90
52321;DHT22;38261;54.090;13.382;2024-01-16T04:25:04;-1.70;99.90
52321;DHT22;38261;54.090;13.382;2024-01-16T04:26:27;-1.80;99.90
52321;DHT22;38261;54.090;13.382;2024-01-16T04:27:49;-1.80;99.90
52321;DHT22;38261;54.090;13.382;2024-01-16T04:29:11;-1.80;99.90
52321;DHT22;38261;54.090;13.382;2024-01-16T04:30:34;-1.80;99.90
52321;DHT22;38261;54.090;13.382;2024-01-16T04:31:57;-1.80;99.90
52321;DHT22;38261;54.090;13.382;2024-01-16T04:33:19;-1.80;99.90
52321;DHT22;38261;54.090;13.382;2024-01-16T04:34:42;-1.80;99.90
52321;DHT22;38261;54.090;13.382;2024-01-16T04:36:05;-1.80;99.90
52321;DHT22;38261;54.090;13.382;2024-01-16T04:37:27;-1.80;99.90
52321;DHT22;38261;54.090;13.382;2024-01-16T04:38:49;-1.80;99.90
52321;DHT22;38261;54.090;13.382;2024-01-16T04:40:11;-1.80;99.90
52321;DHT22;38261;54.090;13.382;2024-01-16T04:41:34;-1.80;99.90
52321;DHT22;38261;54.090;13.382;2024-01-16T04:42:56;-1.80;99.90
52321;DHT22;38261;54.090;13.382;2024-01-16T04:44:18;-1.90;99.90
52321;DHT22;38261;54.090;13.382;2024-01-16T04:45:41;-1.90;99.90
52321;DHT22;38261;54.090;13.382;2024-01-16T04:47:03;-1.90;99.90
52321;DHT22;38261;54.090;13.382;2024-01-16T04:48:25;-1.90;99.90
52321;DHT22;38261;54.090;13.382;2024-01-16T04:49:47;-1.90;99.90
52321;DHT22;38261;54.090;13.382;2024-01-16T04:51:12;-1.90;99.90
52321;DHT22;38261;54.090;13.382;2024-01-16T04:52:34;-1.90;99.90
52321;DHT22;38261;54.090;13.382;2024-01-16T04:53:59;-1.90;99.90
52321;DHT22;38261;54.090;13.382;2024-01-16T04:55:22;-1.90;99.90
52321;DHT22;38261;54.090;13.382;2024-01-16T04:56:45;-2.00;99.90
52321;DHT22;38261;54.090;13.382;2024-01-16T04:58:10;-2.00;99.90
52321;DHT22;38261;54.090;13.382;2024-01-16T04:59:32;-2.00;99.90
52321;DHT22;38261;54.090;13.382;2024-01-16T05:00:54;-2.00;99.90
52321;DHT22;38261;54.090;13.382;2024-01-16T05:02:17;-2.00;99.90
52321;DHT22;38261;54.090;13.382;2024-01-16T05:03:40;-2.00;99.90
52321;DHT22;38261;54.090;13.382;2024-01-16T05:05:02;-2.00;99.90
52321;DHT22;38261;54.090;13.382;2024-01-16T05:06:25;-2.10;99.90
52321;DHT22;38261;54.090;13.382;2024-01-16T05:07:47;-2.10;99.90
52321;DHT22;38261;54.090;13.382;2024-01-16T05:09:09;-2.10;99.90
52321;DHT22;38261;54.090;13.382;2024-01-16T05:10:32;-2.20;99.90
52321;DHT22;38261;54.090;13.382;2024-01-16T05:11:54;-2.20;99.90
52321;DHT22;38261;54.090;13.382;2024-01-16T05:13:16;-2.30;99.90
52321;DHT22;38261;54.090;13.382;2024-01-16T05:14:39;-2.30;99.90
52321;DHT22;38261;54.090;13.382;2024-01-16T05:16:01;-2.30;99.90
52321;DHT22;38261;54.090;13.382;2024-01-16T05:17:23;-2.40;99.90
52321;DHT22;38261;54.090;13.382;2024-01-16T05:18:45;-2.40;99.90
52321;DHT22;38261;54.090;13.382;2024-01-16T05:20:08;-2.40;99.90
52321;DHT22;38261;54.090;13.382;2024-01-16T05:21:30;-2.50;99.90
52321;DHT22;38261;54.090;13.382;2024-01-16T05:22:52;-2.50;99.90
52321;DHT22;38261;54.090;13.382;2024-01-16T05:24:15;-2.50;99.90
52321;DHT22;38261;54.090;13.382;2024-01-16T05:25:37;-2.60;99.90
52321;DHT22;38261;54.090;13.382;2024-01-16T05:26:59;-2.60;99.90
52321;DHT22;38261;54.090;13.382;2024-01-16T05:28:22;-2.60;99.90
52321;DHT22;38261;54.090;13.382;2024-01-16T05:29:44;-2.70;99.90
52321;DHT22;38261;54.090;13.382;2024-01-16T05:31:06;-2.70;99.90
52321;DHT22;38261;54.090;13.382;2024-01-16T05:32:29;-2.70;99.90
52321;DHT22;38261;54.090;13.382;2024-01-16T05:33:51;-2.70;99.90
52321;DHT22;38261;54.090;13.382;2024-01-16T05:35:14;-2.80;99.90
52321;DHT22;38261;54.090;13.382;2024-01-16T05:36:36;-2.80;99.90
52321;DHT22;38261;54.090;13.382;2024-01-16T05:37:58;-2.80;99.90
52321;DHT22;38261;54.090;13.382;2024-01-16T05:39:21;-2.80;99.90
52321;DHT22;38261;54.090;13.382;2024-01-16T05:40:43;-2.80;99.90
52321;DHT22;38261;54.090;13.382;2024-01-16T05:42:05;-2.80;99.90
52321;DHT22;38261;54.090;13.382;2024-01-16T05:43:28;-2.90;99.90
52321;DHT22;38261;54.090;13.382;2024-01-16T05:44:51;-2.90;99.90
52321;DHT22;38261;54.090;13.382;2024-01-16T05:46:15;-2.90;99.90
52321;DHT22;38261;54.090;13.382;2024-01-16T05:47:40;-2.90;99.90
52321;DHT22;38261;54.090;13.382;2024-01-16T05:49:02;-2.90;99.90
52321;DHT22;38261;54.090;13.382;2024-01-16T05:50:25;-2.90;99.90
52321;DHT22;38261;54.090;13.382;2024-01-16T05:51:48;-2.90;99.90
52321;DHT22;38261;54.090;13.382;2024-01-16T05:53:10;-2.90;99.90
52321;DHT22;38261;54.090;13.382;2024-01-16T05:54:32;-2.90;99.90
52321;DHT22;38261;54.090;13.382;2024-01-16T05:55:54;-2.90;99.90
52321;DHT22;38261;54.090;13.382;2024-01-16T05:57:16;-2.90;99.90
52321;DHT22;38261;54.090;13.382;2024-01-16T05:58:38;-2.90;99.90
52321;DHT22;38261;54.090;13.382;2024-01-16T06:00:02;-2.90;99.90
52321;DHT22;38261;54.090;13.382;2024-01-16T06:01:25;-2.90;99.90
52321;DHT22;38261;54.090;13.382;2024-01-16T06:02:49;-3.00;99.90
52321;DHT22;38261;54.090;13.382;2024-01-16T06:04:11;-3.00;99.90
52321;DHT22;38261;54.090;13.382;2024-01-16T06:05:35;-3.00;99.90
52321;DHT22;38261;54.090;13.382;2024-01-16T06:06:58;-3.00;99.90
52321;DHT22;38261;54.090;13.382;2024-01-16T06:08:20;-3.00;99.90
52321;DHT22;38261;54.090;13.382;2024-01-16T06:09:42;-3.10;99.90
52321;DHT22;38261;54.090;13.382;2024-01-16T06:11:04;-3.10;99.90
52321;DHT22;38261;54.090;13.382;2024-01-16T06:12:27;-3.10;99.90
52321;DHT22;38261;54.090;13.382;2024-01-16T06:13:49;-3.20;99.90
52321;DHT22;38261;54.090;13.382;2024-01-16T06:15:11;-3.20;99.90
52321;DHT22;38261;54.090;13.382;2024-01-16T06:16:33;-3.20;99.90
52321;DHT22;38261;54.090;13.382;2024-01-16T06:17:55;-3.20;99.90
52321;DHT22;38261;54.090;13.382;2024-01-16T06:19:18;-3.20;99.90
52321;DHT22;38261;54.090;13.382;2024-01-16T06:20:40;-3.20;99.90
52321;DHT22;38261;54.090;13.382;2024-01-16T06:22:02;-3.20;99.90
52321;DHT22;38261;54.090;13.382;2024-01-16T06:23:24;-3.20;99.90
52321;DHT22;38261;54.090;13.382;2024-01-16T06:24:46;-3.20;99.90
52321;DHT22;38261;54.090;13.382;2024-01-16T06:26:08;-3.20;99.90
52321;DHT22;38261;54.090;13.382;2024-01-16T06:27:31;-3.10;99.90
52321;DHT22;38261;54.090;13.382;2024-01-16T06:28:53;-3.10;99.90
52321;DHT22;38261;54.090;13.382;2024-01-16T06:30:15;-3.10;99.90
52321;DHT22;38261;54.090;13.382;2024-01-16T06:31:37;-3.00;99.90
52321;DHT22;38261;54.090;13.382;2024-01-16T06:33:00;-3.00;99.90
52321;DHT22;38261;54.090;13.382;2024-01-16T06:34:22;-3.00;99.90
52321;DHT22;38261;54.090;13.382;2024-01-16T06:35:44;-2.90;99.90
52321;DHT22;38261;54.090;13.382;2024-01-16T06:37:07;-2.90;99.90
52321;DHT22;38261;54.090;13.382;2024-01-16T06:38:30;-2.80;99.90
52321;DHT22;38261;54.090;13.382;2024-01-16T06:39:53;-2.80;99.90
52321;DHT22;38261;54.090;13.382;2024-01-16T06:41:15;-2.80;99.90
52321;DHT22;38261;54.090;13.382;2024-01-16T06:42:37;-2.70;99.90
52321;DHT22;38261;54.090;13.382;2024-01-16T06:43:59;-2.70;99.90
52321;DHT22;38261;54.090;13.382;2024-01-16T06:45:21;-2.60;99.90
52321;DHT22;38261;54.090;13.382;2024-01-16T06:46:43;-2.60;99.90
52321;DHT22;38261;54.090;13.382;2024-01-16T06:48:06;-2.60;99.90
52321;DHT22;38261;54.090;13.382;2024-01-16T06:49:28;-2.60;99.90
52321;DHT22;38261;54.090;13.382;2024-01-16T06:50:50;-2.60;99.90
52321;DHT22;38261;54.090;13.382;2024-01-16T06:52:13;-2.60;99.90
52321;DHT22;38261;54.090;13.382;2024-01-16T06:53:35;-2.60;99.90
52321;DHT22;38261;54.090;13.382;2024-01-16T06:54:57;-2.60;99.90
52321;DHT22;38261;54.090;13.382;2024-01-16T06:56:20;-2.60;99.90
52321;DHT22;38261;54.090;13.382;2024-01-16T06:57:42;-2.60;99.90
52321;DHT22;38261;54.090;13.382;2024-01-16T06:59:04;-2.60;99.90
52321;DHT22;38261;54.090;13.382;2024-01-16T07:00:29;-2.60;99.90
52321;DHT22;38261;54.090;13.382;2024-01-16T07:01:51;-2.60;99.90
52321;DHT22;38261;54.090;13.382;2024-01-16T07:03:14;-2.60;99.90
52321;DHT22;38261;54.090;13.382;2024-01-16T07:04:36;-2.60;99.90
52321;DHT22;38261;54.090;13.382;2024-01-16T07:05:59;-2.60;99.90
52321;DHT22;38261;54.090;13.382;2024-01-16T07:07:21;-2.60;99.90
52321;DHT22;38261;54.090;13.382;2024-01-16T07:08:43;-2.60;99.90
52321;DHT22;38261;54.090;13.382;2024-01-16T07:10:06;-2.60;99.90
52321;DHT22;38261;54.090;13.382;2024-01-16T07:11:30;-2.60;99.90
52321;DHT22;38261;54.090;13.382;2024-01-16T07:12:52;-2.60;99.90
52321;DHT22;38261;54.090;13.382;2024-01-16T07:14:15;-2.60;99.90
52321;DHT22;38261;54.090;13.382;2024-01-16T07:15:37;-2.60;99.90
52321;DHT22;38261;54.090;13.382;2024-01-16T07:16:59;-2.60;99.90
52321;DHT22;38261;54.090;13.382;2024-01-16T07:18:21;-2.70;99.90
52321;DHT22;38261;54.090;13.382;2024-01-16T07:19:44;-2.70;99.90
52321;DHT22;38261;54.090;13.382;2024-01-16T07:21:18;-2.70;99.90
52321;DHT22;38261;54.090;13.382;2024-01-16T07:22:41;-2.80;99.90
52321;DHT22;38261;54.090;13.382;2024-01-16T07:24:03;-2.80;99.90
52321;DHT22;38261;54.090;13.382;2024-01-16T07:25:25;-2.80;99.90
52321;DHT22;38261;54.090;13.382;2024-01-16T07:26:47;-2.80;99.90
52321;DHT22;38261;54.090;13.382;2024-01-16T07:29:44;-2.90;99.90
52321;DHT22;38261;54.090;13.382;2024-01-16T07:31:07;-2.90;99.90
52321;DHT22;38261;54.090;13.382;2024-01-16T07:32:31;-3.00;99.90
52321;DHT22;38261;54.090;13.382;2024-01-16T07:33:54;-3.00;99.90
52321;DHT22;38261;54.090;13.382;2024-01-16T07:35:17;-3.00;99.90
52321;DHT22;38261;54.090;13.382;2024-01-16T07:36:39;-3.00;99.90
52321;DHT22;38261;54.090;13.382;2024-01-16T07:38:01;-3.00;99.90
52321;DHT22;38261;54.090;13.382;2024-01-16T07:39:26;-3.00;99.90
52321;DHT22;38261;54.090;13.382;2024-01-16T07:40:48;-3.00;99.90
52321;DHT22;38261;54.090;13.382;2024-01-16T07:42:11;-3.00;99.90
52321;DHT22;38261;54.090;13.382;2024-01-16T07:43:33;-3.00;99.90
52321;DHT22;38261;54.090;13.382;2024-01-16T07:44:57;-2.90;99.90
52321;DHT22;38261;54.090;13.382;2024-01-16T07:46:20;-2.90;99.90
52321;DHT22;38261;54.090;13.382;2024-01-16T07:47:42;-2.90;99.90
52321;DHT22;38261;54.090;13.382;2024-01-16T07:49:04;-2.80;99.90
52321;DHT22;38261;54.090;13.382;2024-01-16T07:50:26;-2.80;99.90
52321;DHT22;38261;54.090;13.382;2024-01-16T07:51:48;-2.80;99.90
52321;DHT22;38261;54.090;13.382;2024-01-16T07:53:11;-2.70;99.90
52321;DHT22;38261;54.090;13.382;2024-01-16T07:54:33;-2.70;99.90
52321;DHT22;38261;54.090;13.382;2024-01-16T07:55:55;-2.70;99.90
52321;DHT22;38261;54.090;13.382;2024-01-16T07:57:17;-2.60;99.90
52321;DHT22;38261;54.090;13.382;2024-01-16T07:58:40;-2.60;99.90
52321;DHT22;38261;54.090;13.382;2024-01-16T08:00:02;-2.60;99.90
52321;DHT22;38261;54.090;13.382;2024-01-16T08:01:25;-2.50;99.90
52321;DHT22;38261;54.090;13.382;2024-01-16T08:02:47;-2.50;99.90
52321;DHT22;38261;54.090;13.382;2024-01-16T08:04:10;-2.40;99.90
52321;DHT22;38261;54.090;13.382;2024-01-16T08:05:32;-2.40;99.90
52321;DHT22;38261;54.090;13.382;2024-01-16T08:06:54;-2.30;99.90
52321;DHT22;38261;54.090;13.382;2024-01-16T08:08:16;-2.20;99.90
52321;DHT22;38261;54.090;13.382;2024-01-16T08:09:39;-2.10;99.90
52321;DHT22;38261;54.090;13.382;2024-01-16T08:11:01;-2.00;99.90
52321;DHT22;38261;54.090;13.382;2024-01-16T08:12:23;-2.00;99.90
52321;DHT22;38261;54.090;13.382;2024-01-16T08:13:45;-2.00;99.90
52321;DHT22;38261;54.090;13.382;2024-01-16T08:15:07;-1.90;99.90
52321;DHT22;38261;54.090;13.382;2024-01-16T08:16:30;-1.80;99.90
52321;DHT22;38261;54.090;13.382;2024-01-16T08:17:52;-1.80;99.90
52321;DHT22;38261;54.090;13.382;2024-01-16T08:19:14;-1.70;99.90
52321;DHT22;38261;54.090;13.382;2024-01-16T08:20:37;-1.70;99.90
52321;DHT22;38261;54.090;13.382;2024-01-16T08:21:59;-1.60;99.90
52321;DHT22;38261;54.090;13.382;2024-01-16T08:23:21;-1.60;99.90
52321;DHT22;38261;54.090;13.382;2024-01-16T08:24:43;-1.60;99.90
52321;DHT22;38261;54.090;13.382;2024-01-16T08:26:06;-1.50;99.90
52321;DHT22;38261;54.090;13.382;2024-01-16T08:27:29;-1.50;99.90
52321;DHT22;38261;54.090;13.382;2024-01-16T08:28:51;-1.40;99.90
52321;DHT22;38261;54.090;13.382;2024-01-16T08:30:14;-1.40;99.90
52321;DHT22;38261;54.090;13.382;2024-01-16T08:31:36;-1.30;99.90
52321;DHT22;38261;54.090;13.382;2024-01-16T08:32:58;-1.30;99.90
52321;DHT22;38261;54.090;13.382;2024-01-16T08:34:20;-1.30;99.90
52321;DHT22;38261;54.090;13.382;2024-01-16T08:35:43;-1.30;99.90